Time;durP1;ratioP1;P1;durP2;ratioP2;P2;SDS_P1;SDS_P2;PMS_P1;PMS_P2;Temp;Humidity;BMP_temperature;BMP_pressure;BME280_temperature;BME280_humidity;BME280_pressure;Samples;Min_cycle;Max_cycle;Signal;HPM_P1;HPM_P2
2022/01/03 00:01:09;;;;;;;14.13;9.70;;;;;;;9.84;68.61;101207.47;4978983;28;102552;-53
2022/01/03 00:03:36;;;;;;;13.82;8.68;;;;;;;9.85;68.73;101214.53;4975896;28;103823;-49
2022/01/03 00:06:05;;;;;;;12.38;8.75;;;;;;;9.85;68.95;101214.53;4977589;28;104068;-49
2022/01/03 00:08:33;;;;;;;13.02;8.93;;;;;;;9.85;68.28;101214.53;4978077;28;102146;-49
2022/01/03 00:11:01;;;;;;;15.25;8.82;;;;;;;9.84;68.52;101212.06;4978448;28;102575;-49
2022/01/03 00:13:27;;;;;;;11.80;8.15;;;;;;;9.85;69.03;101200.97;4974448;28;103926;-53
2022/01/03 00:15:55;;;;;;;11.65;8.27;;;;;;;9.85;68.61;101181.94;4977294;28;102031;-49
2022/01/03 00:18:23;;;;;;;12.90;8.38;;;;;;;9.85;68.96;101160.19;4976092;28;102356;-49
2022/01/03 00:21:00;;;;;;;11.80;8.32;;;;;;;9.84;68.65;101153.09;4965763;28;104195;-51
2022/01/03 00:23:29;;;;;;;12.35;8.27;;;;;;;9.85;68.74;101133.00;4975341;28;103880;-52
2022/01/03 00:26:00;;;;;;;13.88;8.50;;;;;;;9.84;68.91;101120.50;4978561;28;102238;-50
2022/01/03 00:28:34;;;;;;;11.52;8.43;;;;;;;9.85;68.89;101105.81;4976915;28;101971;-52
2022/01/03 00:31:02;;;;;;;10.57;7.78;;;;;;;9.85;68.43;101097.66;4979521;28;101939;-50
2022/01/03 00:33:29;;;;;;;12.63;7.82;;;;;;;9.84;68.42;101079.72;4974030;28;104451;-49
2022/01/03 00:36:01;;;;;;;9.27;6.97;;;;;;;9.85;68.99;101084.06;4977250;28;102223;-49
2022/01/03 00:38:29;;;;;;;10.43;7.65;;;;;;;9.85;68.10;101088.69;4977592;28;102114;-50
2022/01/03 00:40:56;;;;;;;13.02;8.32;;;;;;;9.84;68.46;101087.88;4977592;28;102251;-50
2022/01/03 00:43:24;;;;;;;9.52;7.25;;;;;;;9.84;68.68;101093.31;4977419;28;103898;-49
2022/01/03 00:45:52;;;;;;;11.47;7.53;;;;;;;9.84;68.97;101093.31;4976959;28;102084;-49
2022/01/03 00:48:20;;;;;;;10.88;7.28;;;;;;;9.83;68.14;101088.91;4977650;28;102322;-51
2022/01/03 00:50:47;;;;;;;11.23;7.72;;;;;;;9.84;68.61;101090.59;4978839;28;102681;-49
2022/01/03 00:53:14;;;;;;;10.95;6.65;;;;;;;9.84;68.45;101097.91;4976963;28;103167;-49
2022/01/03 00:55:59;;;;;;;10.25;7.13;;;;;;;9.84;68.61;101090.59;4957750;28;102008;-51
2022/01/03 00:58:29;;;;;;;11.00;7.07;;;;;;;9.84;68.49;101077.00;4971094;28;102139;-49
2022/01/03 01:00:58;;;;;;;9.13;7.13;;;;;;;9.84;68.22;101077.00;4978037;28;102158;-49
2022/01/03 01:03:28;;;;;;;;;;;;;;;9.83;68.29;101069.88;4976164;28;103824;-49
2022/01/03 01:05:55;;;;;;;8.30;6.80;;;;;;;9.84;68.96;101074.28;4978378;28;102448;-49
2022/01/03 01:08:23;;;;;;;10.50;6.95;;;;;;;9.84;68.28;101066.13;4977275;28;101908;-52
2022/01/03 01:10:51;;;;;;;9.05;6.50;;;;;;;9.83;68.15;101056.31;4980519;28;102266;-50
2022/01/03 01:13:21;;;;;;;10.27;6.65;;;;;;;9.83;68.80;101031.84;4978073;28;103841;-49
2022/01/03 01:15:49;;;;;;;8.88;6.47;;;;;;;9.83;68.65;101026.41;4980887;28;101897;-50
2022/01/03 01:18:17;;;;;;;9.88;6.43;;;;;;;9.84;68.97;101032.66;4980404;28;102023;-52
2022/01/03 01:20:43;;;;;;;9.60;6.32;;;;;;;9.83;68.14;101029.13;4977460;28;102123;-52
2022/01/03 01:23:14;;;;;;;8.50;6.15;;;;;;;9.83;68.48;101026.41;4979337;28;103907;-51
2022/01/03 01:28:09;;;;;;;9.60;6.15;;;;;;;9.83;69.06;101001.94;4981142;28;102335;-52
2022/01/03 01:30:37;;;;;;;9.20;6.68;;;;;;;9.83;68.95;100996.50;4981129;28;102120;-49
2022/01/03 01:33:06;;;;;;;10.10;6.35;;;;;;;9.84;68.19;100989.16;4977658;28;103906;-49
2022/01/03 01:35:41;;;;;;;6.97;5.68;;;;;;;9.83;68.44;100982.91;4980905;28;102178;-51
2022/01/03 01:38:09;;;;;;;7.70;5.45;;;;;;;9.83;68.93;100961.16;4981320;28;102021;-50
2022/01/03 01:40:44;;;;;;;9.02;5.47;;;;;;;9.83;68.61;100955.72;4981812;28;102154;-52
2022/01/03 01:43:12;;;;;;;7.22;5.38;;;;;;;9.84;69.03;100946.50;4980467;28;103859;-50
2022/01/03 01:45:43;;;;;;;9.80;5.68;;;;;;;9.83;68.01;100961.16;4979508;28;102113;-49
2022/01/03 01:48:12;;;;;;;7.55;4.93;;;;;;;9.85;68.58;100941.88;4979011;28;102315;-53
2022/01/03 01:50:41;;;;;;;7.93;5.47;;;;;;;9.83;68.13;100928.53;4981515;28;102409;-51
2022/01/03 01:53:09;;;;;;;6.90;5.65;;;;;;;9.83;68.52;100928.53;4979524;28;104011;-49
2022/01/03 01:55:39;;;;;;;6.75;5.03;;;;;;;9.84;68.67;100919.34;4980651;28;102110;-52
2022/01/03 01:58:21;;;;;;;7.70;5.35;;;;;;;9.84;68.86;100911.19;4979345;28;102505;-51
2022/01/03 02:00:55;;;;;;;6.88;4.90;;;;;;;9.84;68.33;100913.91;4980006;28;102099;-52
2022/01/03 02:03:31;;;;;;;7.10;5.00;;;;;;;9.84;68.24;100908.47;4980838;28;104003;-50
2022/01/03 02:06:10;;;;;;;6.75;5.35;;;;;;;9.83;68.92;100889.69;4978765;28;102070;-52
2022/01/03 02:08:44;;;;;;;8.70;5.07;;;;;;;9.83;68.18;100876.91;4979671;28;101965;-49
2022/01/03 02:11:19;;;;;;;9.02;5.10;;;;;;;9.83;68.53;100857.88;4980253;28;102555;-49
2022/01/03 02:13:47;;;;;;;7.25;4.70;;;;;;;9.83;69.01;100833.41;4979532;28;103870;-51
2022/01/03 02:16:13;;;;;;;7.57;5.05;;;;;;;9.83;68.80;100814.38;4980200;28;102321;-50
2022/01/03 02:18:40;;;;;;;6.40;4.80;;;;;;;9.84;68.23;100804.31;4977779;28;101920;-52
2022/01/03 02:21:08;;;;;;;7.53;5.28;;;;;;;9.82;68.74;100796.44;4980285;28;102654;-49
2022/01/03 02:23:35;;;;;;;6.65;4.60;;;;;;;9.82;68.87;100782.84;4979816;28;103953;-49
2022/01/03 02:26:02;;;;;;;6.15;4.55;;;;;;;9.84;68.74;100771.69;4979251;28;102419;-51
2022/01/03 02:28:31;;;;;;;8.02;4.60;;;;;;;9.82;68.47;100773.88;4979803;28;102254;-50
2022/01/03 02:30:58;;;;;;;5.75;4.10;;;;;;;9.83;68.65;100776.31;4979128;28;102100;-50
2022/01/03 02:33:24;;;;;;;6.25;4.47;;;;;;;9.83;68.80;100776.31;4980519;28;103937;-50
2022/01/03 02:35:50;;;;;;;5.40;4.30;;;;;;;9.83;68.81;100781.75;4979531;28;101996;-50
2022/01/03 02:38:18;;;;;;;5.82;4.15;;;;;;;9.83;68.31;100770.88;4979769;28;102471;-49
2022/01/03 02:40:45;;;;;;;6.05;4.18;;;;;;;9.83;69.02;100760.00;4977141;28;102566;-52
2022/01/03 02:43:12;;;;;;;6.38;4.50;;;;;;;9.82;68.65;100763.00;4980280;28;103976;-50
2022/01/03 02:45:40;;;;;;;6.40;4.03;;;;;;;9.84;68.97;100768.97;4980783;28;102725;-52
2022/01/03 02:48:07;;;;;;;5.57;3.88;;;;;;;9.82;68.53;100765.72;4979083;28;102025;-52
2022/01/03 02:50:35;;;;;;;6.45;4.07;;;;;;;9.83;68.28;100765.44;4981317;28;102300;-49
2022/01/03 02:53:03;;;;;;;4.10;3.70;;;;;;;9.83;68.97;100787.19;4978613;28;104011;-50
2022/01/03 02:55:31;;;;;;;6.38;3.88;;;;;;;9.84;68.88;100777.97;4979264;28;102031;-53
2022/01/03 02:58:05;;;;;;;5.82;4.15;;;;;;;9.84;68.44;100777.13;4979881;28;102320;-50
2022/01/03 03:00:35;;;;;;;6.03;4.10;;;;;;;9.83;68.56;100765.44;4979729;28;102006;-51
2022/01/03 03:03:03;;;;;;;5.05;3.78;;;;;;;9.84;68.27;100739.94;4976883;28;103850;-50
2022/01/03 03:05:30;;;;;;;5.07;3.55;;;;;;;9.83;68.06;100721.97;4975163;28;102215;-49
2022/01/03 03:07:56;;;;;;;5.32;3.55;;;;;;;9.84;68.96;100711.91;4979036;28;102348;-50
2022/01/03 03:10:25;;;;;;;5.90;3.72;;;;;;;9.84;68.26;100712.75;4981437;28;102376;-53
2022/01/03 03:12:54;;;;;;;4.95;3.53;;;;;;;9.84;68.87;100706.47;4978991;28;103965;-51
2022/01/03 03:15:20;;;;;;;5.65;3.67;;;;;;;9.84;68.20;100704.59;4980285;28;102294;-50
2022/01/03 03:17:49;;;;;;;4.80;3.67;;;;;;;9.84;68.43;100687.44;4977837;28;102034;-49
2022/01/03 03:20:17;;;;;;;4.43;3.03;;;;;;;9.83;69.04;100662.16;4977573;28;102680;-51
2022/01/03 03:22:45;;;;;;;;;;;;;;;9.85;68.66;100645.59;4977806;28;104194;-52
2022/01/03 03:25:14;;;;;;;5.20;3.55;;;;;;;9.83;68.55;100643.13;4979753;28;101964;-49
2022/01/03 03:27:44;;;;;;;5.45;3.95;;;;;;;9.84;68.92;100630.34;4978962;28;102166;-52
2022/01/03 03:30:14;;;;;;;6.30;3.45;;;;;;;9.83;68.16;100615.16;4979985;28;102178;-49
2022/01/03 03:32:44;;;;;;;4.97;3.45;;;;;;;9.84;68.95;100609.47;4979118;28;103866;-50
2022/01/03 03:35:10;;;;;;;5.07;3.17;;;;;;;9.84;68.42;100622.22;4977797;28;102395;-50
2022/01/03 03:37:38;;;;;;;3.92;3.17;;;;;;;9.83;68.26;100662.16;4976803;28;102537;-51
2022/01/03 03:40:06;;;;;;;5.05;3.60;;;;;;;9.83;68.12;100683.91;4979391;28;102397;-49
2022/01/03 03:42:34;;;;;;;;;;;;;;;9.84;68.31;100696.44;4976500;28;103893;-56
2022/01/03 03:45:01;;;;;;;5.30;3.53;;;;;;;9.84;68.79;100695.59;4978485;28;102310;-49
2022/01/03 03:47:28;;;;;;;4.25;3.35;;;;;;;9.84;69.22;100696.44;4979206;28;102129;-53
2022/01/03 03:49:55;;;;;;;4.63;3.50;;;;;;;9.84;68.95;100688.28;4971552;28;102443;-52
2022/01/03 03:52:21;;;;;;;4.75;3.33;;;;;;;9.84;68.52;100701.88;4978806;28;103933;-54
2022/01/03 03:54:48;;;;;;;3.72;3.08;;;;;;;9.85;68.93;100665.44;4976904;28;102270;-51
2022/01/03 03:57:15;;;;;;;5.82;3.45;;;;;;;9.84;68.50;100650.22;4978841;28;102257;-53
2022/01/03 03:59:41;;;;;;;5.90;3.50;;;;;;;9.84;68.77;100663.81;4978769;28;102897;-53
2022/01/03 04:02:08;;;;;;;5.45;3.85;;;;;;;9.86;68.36;100668.97;4980815;28;102913;-51
2022/01/03 04:04:36;;;;;;;4.60;3.25;;;;;;;9.85;68.90;100642.88;4979786;28;101909;-50
2022/01/03 04:07:03;;;;;;;6.67;3.57;;;;;;;9.85;68.57;100615.72;4978754;28;102836;-49
2022/01/03 04:09:30;;;;;;;5.40;3.58;;;;;;;9.85;68.91;100616.53;4966228;28;102158;-50
2022/01/03 04:12:01;;;;;;;4.60;3.60;;;;;;;9.85;68.54;100604.84;4980655;28;103996;-49
2022/01/03 04:14:27;;;;;;;4.05;2.88;;;;;;;9.85;68.76;100615.72;4975963;28;102428;-49
2022/01/03 04:16:54;;;;;;;5.35;3.42;;;;;;;9.85;68.34;100638.25;4976647;28;102222;-49
2022/01/03 04:19:20;;;;;;;4.32;3.13;;;;;;;9.85;68.43;100642.88;4976605;28;102563;-48
2022/01/03 04:21:48;;;;;;;4.78;3.10;;;;;;;9.85;69.22;100640.16;4975187;28;104359;-51
2022/01/03 04:24:15;;;;;;;4.97;3.47;;;;;;;9.85;68.36;100649.13;4978042;28;102496;-51
2022/01/03 04:26:43;;;;;;;4.68;3.22;;;;;;;9.85;68.90;100638.25;4974749;28;102274;-51
2022/01/03 04:29:09;;;;;;;4.43;3.58;;;;;;;9.85;68.79;100632.81;4977791;28;102224;-50
2022/01/03 04:31:37;;;;;;;5.93;3.55;;;;;;;9.85;68.64;100621.97;4975667;28;103905;-51
2022/01/03 04:34:04;;;;;;;4.25;3.30;;;;;;;9.86;68.39;100595.59;4974739;28;102629;-53
2022/01/03 04:36:33;;;;;;;4.32;3.38;;;;;;;9.86;69.31;100585.53;4975795;28;102269;-50
2022/01/03 04:39:01;;;;;;;5.45;3.65;;;;;;;9.86;68.41;100582.00;4977326;28;102173;-51
2022/01/03 04:41:27;;;;;;;4.60;3.65;;;;;;;9.85;69.05;100567.59;4976257;28;103917;-51
2022/01/03 04:43:54;;;;;;;5.53;3.65;;;;;;;9.86;68.94;100562.97;4973380;28;102553;-52
2022/01/03 04:46:20;;;;;;;4.95;3.60;;;;;;;9.87;68.37;100570.03;4977335;28;102269;-49
2022/01/03 04:48:46;;;;;;;4.70;3.70;;;;;;;9.85;69.07;100578.47;4978543;28;102554;-49
2022/01/03 04:51:13;;;;;;;5.28;3.28;;;;;;;9.86;68.72;100584.72;4974597;28;103889;-49
2022/01/03 04:53:40;;;;;;;4.82;3.80;;;;;;;9.86;68.46;100585.53;4976581;28;102317;-53
2022/01/03 04:56:10;;;;;;;5.03;3.50;;;;;;;9.86;69.30;100568.41;4958038;28;102463;-52
2022/01/03 04:58:37;;;;;;;4.53;3.28;;;;;;;9.87;68.95;100565.41;4966674;28;102104;-50
2022/01/03 05:01:04;;;;;;;5.72;3.15;;;;;;;9.86;68.90;100558.34;4960319;28;103955;-51
2022/01/03 06:56:11;;;;;;;6.80;5.65;;;;;;;9.76;69.07;100427.06;5109004;27;102298;-96
2022/01/03 06:59:00;;;;;;;6.90;5.38;;;;;;;9.76;69.34;100446.91;5106920;27;101313;-96
2022/01/03 07:01:26;;;;;;;6.45;5.60;;;;;;;9.76;69.32;100465.94;5087496;22;103635;-50
2022/01/03 07:03:53;;;;;;;6.90;5.63;;;;;;;9.77;69.32;100456.72;5040268;27;103980;-49
2022/01/03 07:06:19;;;;;;;7.80;6.20;;;;;;;9.79;68.91;100442.84;5011510;27;104008;-50
2022/01/03 07:08:46;;;;;;;7.38;5.90;;;;;;;9.78;69.39;100442.03;5046367;27;102346;-50
2022/01/03 07:11:14;;;;;;;7.47;6.10;;;;;;;9.80;69.46;100450.69;5047769;27;103708;-49
2022/01/03 07:13:45;;;;;;;7.38;6.32;;;;;;;9.82;69.51;100443.09;5028291;27;101957;-51
2022/01/03 07:19:00;;;;;;;6.53;5.68;;;;;;;9.83;69.55;100450.16;5046890;27;103511;-50
2022/01/03 07:21:28;;;;;;;7.68;5.97;;;;;;;9.84;69.57;100450.97;5028220;27;103866;-51
2022/01/03 07:23:56;;;;;;;7.50;5.88;;;;;;;9.83;68.98;100461.03;5040186;27;102959;-50
2022/01/03 07:26:25;;;;;;;6.65;5.90;;;;;;;9.85;69.00;100469.75;5050304;27;101857;-50
2022/01/03 07:28:52;;;;;;;7.28;5.72;;;;;;;9.85;69.86;100453.44;5054262;27;102269;-49
2022/01/03 07:31:19;;;;;;;6.97;6.25;;;;;;;9.86;69.88;100454.25;5052907;27;104004;-49
2022/01/03 07:33:47;;;;;;;7.57;6.30;;;;;;;9.86;69.54;100438.75;5053119;27;102092;-50
2022/01/03 07:36:14;;;;;;;6.38;5.78;;;;;;;9.89;69.41;100423.00;5047513;27;102348;-49
2022/01/03 07:38:41;;;;;;;7.38;6.43;;;;;;;9.88;69.38;100427.59;5051918;27;102228;-49
2022/01/03 07:41:09;;;;;;;6.78;6.07;;;;;;;9.89;69.59;100415.66;5031261;27;103925;-50
2022/01/03 07:43:37;;;;;;;7.68;6.40;;;;;;;9.90;69.13;100405.59;5048065;27;102053;-50
2022/01/03 07:46:03;;;;;;;7.10;6.03;;;;;;;9.91;69.62;100426.25;5048143;27;102320;-50
2022/01/03 07:48:30;;;;;;;6.90;5.95;;;;;;;9.91;69.95;100423.50;5038830;27;102128;-51
2022/01/03 07:50:57;;;;;;;6.47;5.75;;;;;;;9.92;69.93;100422.41;5052998;27;102559;-50
2022/01/03 07:53:24;;;;;;;6.47;5.72;;;;;;;9.93;69.05;100415.91;5018429;28;102035;-51
2022/01/03 07:55:50;;;;;;;7.90;5.68;;;;;;;9.93;69.90;100405.03;5017570;28;102224;-50
2022/01/03 07:58:17;;;;;;;7.65;5.93;;;;;;;9.93;69.52;100421.34;5047564;27;102229;-49
2022/01/03 08:00:45;;;;;;;7.28;6.20;;;;;;;9.93;69.36;100416.72;5054981;27;104002;-49
2022/01/03 08:03:12;;;;;;;7.50;6.03;;;;;;;9.95;69.92;100411.00;5049929;27;102174;-49
2022/01/03 08:05:39;;;;;;;6.95;5.93;;;;;;;9.95;69.68;100419.97;5045022;27;101934;-49
2022/01/03 08:08:09;;;;;;;8.13;6.65;;;;;;;9.96;69.90;100423.53;5034519;27;102294;-50
2022/01/03 08:10:36;;;;;;;7.28;6.13;;;;;;;9.96;69.19;100404.50;5026165;27;104163;-50
2022/01/03 08:13:03;;;;;;;8.68;7.05;;;;;;;9.97;69.93;100397.97;5029716;27;102461;-49
2022/01/03 08:15:31;;;;;;;7.63;6.23;;;;;;;9.97;69.11;100384.38;5031122;28;102522;-50
2022/01/03 08:17:59;;;;;;;7.90;6.63;;;;;;;9.97;69.17;100378.94;5041164;28;102142;-53
2022/01/03 08:20:26;;;;;;;8.38;6.25;;;;;;;9.98;69.82;100391.44;5036642;28;103765;-50
2022/01/03 08:22:53;;;;;;;6.65;5.97;;;;;;;9.98;69.98;100400.41;5031994;28;102203;-52
2022/01/03 08:25:20;;;;;;;7.82;6.20;;;;;;;9.98;69.45;100384.09;5028330;28;102747;-49
2022/01/03 08:27:47;;;;;;;7.38;6.18;;;;;;;9.98;69.61;100375.94;5034859;28;102191;-49
2022/01/03 08:30:14;;;;;;;8.60;6.80;;;;;;;10.00;69.83;100372.94;5036617;27;104021;-50
2022/01/03 08:32:42;;;;;;;7.43;5.85;;;;;;;9.98;69.66;100386.81;5034172;27;101966;-50
2022/01/03 08:35:10;;;;;;;7.47;6.68;;;;;;;10.00;69.34;100400.13;5035395;27;102147;-49
2022/01/03 08:37:37;;;;;;;8.45;6.68;;;;;;;10.01;69.00;100390.88;5025194;28;103022;-52
2022/01/03 08:40:06;;;;;;;6.90;6.18;;;;;;;10.00;69.94;100378.38;5034243;28;103881;-49
2022/01/03 08:42:35;;;;;;;7.65;6.70;;;;;;;10.01;69.14;100380.00;5021252;28;101923;-53
2022/01/03 08:45:03;;;;;;;8.32;7.05;;;;;;;10.00;69.93;100367.50;5024671;28;101980;-49
2022/01/03 08:47:30;;;;;;;8.57;6.97;;;;;;;10.00;69.35;100357.44;5014033;28;102237;-53
2022/01/03 09:44:32;;;;;;;9.57;7.60;;;;;;;9.92;69.32;100283.78;4881104;27;5702855;-95
2022/01/03 09:47:02;;;;;;;9.52;7.03;;;;;;;9.92;70.04;100283.78;5095801;27;102189;-95
2022/01/03 09:49:33;;;;;;;8.30;6.68;;;;;;;9.93;69.47;100280.00;5109321;27;101819;-95
2022/01/03 09:52:01;;;;;;;11.23;7.97;;;;;;;9.93;69.33;100280.00;5102745;27;101639;-94
2022/01/03 09:54:28;;;;;;;9.98;7.60;;;;;;;9.94;70.09;100273.47;5083557;27;101830;-93
2022/01/03 09:56:58;;;;;;;10.10;7.18;;;;;;;9.95;69.65;100275.09;5084334;27;102473;-95
2022/01/03 09:59:26;;;;;;;8.98;7.80;;;;;;;9.94;69.26;100266.13;5074998;27;102310;-95
2022/01/03 10:01:56;;;;;;;9.75;7.72;;;;;;;9.95;69.52;100266.94;5088713;27;102098;-94
2022/01/03 10:04:24;;;;;;;9.82;7.72;;;;;;;9.95;69.39;100261.50;5085187;27;102027;-94
2022/01/03 10:06:51;;;;;;;8.82;7.75;;;;;;;9.96;70.00;100252.28;5099707;27;102166;-95
2022/01/03 10:09:20;;;;;;;10.23;7.97;;;;;;;9.97;69.17;100253.88;5095940;27;102887;-94
2022/01/03 10:11:48;;;;;;;8.82;7.75;;;;;;;9.97;70.15;100251.16;5087789;27;102177;-94
2022/01/03 10:14:16;;;;;;;8.77;7.60;;;;;;;9.99;69.79;100262.56;5094399;27;102170;-95
2022/01/03 10:16:45;;;;;;;8.57;7.35;;;;;;;9.98;69.60;100267.19;5087359;27;102142;-93
2022/01/03 10:19:14;;;;;;;8.95;8.02;;;;;;;9.98;69.51;100247.34;5051870;22;103315;-49
2022/01/03 10:21:43;;;;;;;10.30;7.77;;;;;;;9.99;69.53;100262.56;5030163;28;101927;-49
2022/01/03 10:24:11;;;;;;;9.65;7.32;;;;;;;9.98;70.05;100261.75;5025682;28;102080;-50
2022/01/03 10:26:39;;;;;;;9.07;7.38;;;;;;;9.99;69.65;100268.84;5036702;28;102119;-50
2022/01/03 10:29:17;;;;;;;7.93;6.85;;;;;;;9.99;69.96;100262.56;5035196;27;103755;-49
2022/01/03 10:31:49;;;;;;;10.35;7.97;;;;;;;10.00;70.08;100261.50;5032032;28;102070;-49
2022/01/03 10:34:21;;;;;;;10.88;8.43;;;;;;;9.99;69.41;100251.69;5015305;28;101963;-49
2022/01/03 10:36:48;;;;;;;9.50;7.70;;;;;;;10.00;69.41;100242.47;5028339;28;102203;-50
2022/01/03 10:39:18;;;;;;;9.65;8.05;;;;;;;10.00;69.44;100224.25;5014537;28;103942;-49
2022/01/03 10:41:48;;;;;;;8.82;7.43;;;;;;;10.00;69.47;100231.59;5024588;28;102398;-50
2022/01/03 10:44:30;;;;;;;8.65;7.18;;;;;;;10.00;69.87;100240.56;5005860;28;102468;-49
2022/01/03 10:46:57;;;;;;;8.77;7.68;;;;;;;10.00;69.57;100242.47;5004597;28;102080;-49
2022/01/03 10:49:26;;;;;;;8.88;7.72;;;;;;;10.01;70.10;100223.13;4996850;28;104219;-51
2022/01/03 10:52:14;;;;;;;10.75;8.40;;;;;;;10.00;69.38;100226.97;5003718;28;103942;-49
2022/01/03 10:54:40;;;;;;;10.93;8.93;;;;;;;10.01;69.53;100222.34;4984935;28;102086;-50
2022/01/03 10:57:07;;;;;;;11.48;8.68;;;;;;;10.01;70.17;100238.66;4994141;28;102333;-49
2022/01/03 10:59:35;;;;;;;11.20;8.90;;;;;;;10.00;69.39;100232.41;4985510;28;103881;-48
2022/01/03 11:02:04;;;;;;;12.85;9.70;;;;;;;10.01;69.64;100233.22;4990502;28;102031;-49
2022/01/03 11:04:39;;;;;;;11.55;9.32;;;;;;;10.02;70.06;100229.38;4982066;28;103567;-51
2022/01/03 11:13:04;;;;;;;10.35;8.43;;;;;;;10.02;69.70;100196.75;4994204;28;102123;-49
2022/01/03 11:15:41;;;;;;;11.63;8.65;;;;;;;10.03;69.21;100187.53;4987830;28;102486;-49
2022/01/03 11:18:09;;;;;;;;;;;;;;;10.03;69.23;100179.38;4984782;28;102272;-49
2022/01/03 11:20:37;;;;;;;11.18;8.85;;;;;;;10.02;69.28;100191.31;4979764;28;104060;-49
2022/01/03 11:23:04;;;;;;;10.45;8.43;;;;;;;10.03;69.40;100203.84;4991721;28;102715;-49
2022/01/03 11:25:32;;;;;;;9.85;8.13;;;;;;;10.03;69.67;100206.56;4986839;28;102698;-50
2022/01/03 11:27:59;;;;;;;9.80;8.13;;;;;;;10.03;70.04;100220.97;4987654;28;102147;-49
2022/01/03 11:30:26;;;;;;;10.32;8.55;;;;;;;10.03;69.33;100209.28;4990841;28;103960;-49
2022/01/03 11:32:54;;;;;;;12.43;9.27;;;;;;;10.04;69.83;100210.91;4998947;28;102020;-49
2022/01/03 11:35:21;;;;;;;14.43;9.82;;;;;;;10.03;69.34;100217.44;4980948;28;102107;-48
2022/01/03 11:37:52;;;;;;;13.73;9.80;;;;;;;10.03;69.71;100212.00;4982946;28;102719;-49
2022/01/03 11:40:18;;;;;;;18.55;10.40;;;;;;;10.02;70.09;100213.06;4975006;28;103847;-49
2022/01/03 11:42:47;;;;;;;14.52;10.48;;;;;;;10.02;69.99;100205.72;4985287;28;104013;-49
2022/01/03 11:45:13;;;;;;;15.63;10.45;;;;;;;10.03;70.00;100214.72;4984148;28;102123;-48
2022/01/03 11:47:40;;;;;;;12.13;10.10;;;;;;;10.03;70.03;100214.72;5001813;28;102342;-49
2022/01/03 11:50:08;;;;;;;12.77;10.52;;;;;;;10.02;69.68;100207.63;4983452;28;103981;-51
2022/01/03 11:52:39;;;;;;;13.80;10.55;;;;;;;10.03;69.61;100210.09;4997075;28;102056;-49
2022/01/03 11:55:08;;;;;;;13.40;9.90;;;;;;;10.03;69.64;100203.84;4997768;28;101920;-49
2022/01/03 12:03:50;;;;;;;14.38;10.63;;;;;;;10.05;70.08;100190.78;4986333;28;102162;-49
2022/01/03 12:06:25;;;;;;;14.03;11.20;;;;;;;10.05;69.25;100188.06;4992203;28;102141;-49
2022/01/03 12:08:55;;;;;;;18.45;11.60;;;;;;;10.05;69.38;100182.63;4997802;28;103100;-51
2022/01/03 12:11:25;;;;;;;13.18;11.25;;;;;;;10.05;69.39;100186.16;4995148;28;104124;-50
2022/01/03 12:13:53;;;;;;;14.00;10.45;;;;;;;10.05;69.69;100186.16;4993671;28;102612;-48
2022/01/03 12:16:42;;;;;;;14.95;10.70;;;;;;;10.06;69.28;100195.09;4984381;28;102328;-50
2022/01/03 12:19:12;;;;;;;14.50;11.02;;;;;;;10.04;69.82;100194.59;4993346;28;102208;-49
2022/01/03 12:21:59;;;;;;;13.68;10.63;;;;;;;10.05;69.71;100198.94;4978767;28;104101;-49
2022/01/03 12:25:02;;;;;;;13.60;11.13;;;;;;;10.05;69.84;100197.00;4976580;28;102065;-49
2022/01/03 12:27:39;;;;;;;14.30;11.77;;;;;;;10.05;69.65;100190.78;4980284;28;104233;-49
2022/01/03 12:30:20;;;;;;;16.90;12.35;;;;;;;10.05;70.13;100182.63;4979552;28;102398;-49
2022/01/03 12:33:24;;;;;;;17.38;12.95;;;;;;;10.05;69.74;100186.16;4994589;28;104054;-49
2022/01/03 12:36:15;;;;;;;16.77;12.82;;;;;;;10.06;69.81;100195.09;4979177;28;101977;-50
2022/01/03 12:39:02;;;;;;;15.73;11.77;;;;;;;10.05;69.93;100196.22;4978663;28;102356;-49
2022/01/03 12:41:40;;;;;;;16.73;11.88;;;;;;;10.05;69.17;100191.56;4978062;28;101974;-48
2022/01/03 12:44:09;;;;;;;16.10;11.38;;;;;;;10.04;69.33;100186.44;4994386;28;103753;-49
2022/01/03 12:46:36;;;;;;;15.25;11.55;;;;;;;10.06;69.71;100173.34;4993514;28;102031;-48
2022/01/03 12:49:25;;;;;;;16.10;11.57;;;;;;;10.06;69.58;100193.22;4985356;28;102144;-50
2022/01/03 12:52:13;;;;;;;15.98;12.05;;;;;;;10.05;69.81;100180.72;4978535;28;102726;-50
2022/01/03 12:54:40;;;;;;;16.17;12.23;;;;;;;10.06;69.78;100181.50;4986378;28;103951;-49
2022/01/03 12:57:15;;;;;;;16.73;12.10;;;;;;;10.05;69.92;100179.91;4990221;28;102047;-50
2022/01/03 12:59:44;;;;;;;14.50;11.52;;;;;;;10.07;70.24;100183.16;4994110;28;102593;-52
2022/01/03 13:02:31;;;;;;;15.37;12.20;;;;;;;10.06;69.58;100176.06;4989721;28;102275;-48
2022/01/03 13:05:02;;;;;;;15.13;11.98;;;;;;;10.06;69.80;100176.06;4981539;28;103726;-48
2022/01/03 13:07:28;;;;;;;14.40;11.70;;;;;;;10.07;69.24;100175.00;5001546;28;102314;-49
2022/01/03 13:09:55;;;;;;;17.42;12.85;;;;;;;10.06;69.59;100165.19;4976104;28;102469;-49
2022/01/03 13:12:42;;;;;;;17.63;12.85;;;;;;;10.07;70.17;100169.56;4978810;28;102031;-49
2022/01/03 13:15:11;;;;;;;15.65;12.15;;;;;;;10.05;69.33;100167.09;4976385;28;104044;-49
2022/01/03 13:17:37;;;;;;;16.92;11.80;;;;;;;10.06;69.68;100167.91;4976450;28;101968;-48
2022/01/03 13:20:05;;;;;;;16.85;12.70;;;;;;;10.06;69.21;100171.47;4977028;28;102437;-50
2022/01/03 13:22:32;;;;;;;17.70;12.48;;;;;;;10.06;70.23;100176.06;4984544;28;102368;-49
2022/01/03 13:24:59;;;;;;;15.55;12.48;;;;;;;10.06;70.23;100176.91;4979440;28;104407;-49
2022/01/03 13:27:27;;;;;;;18.48;12.90;;;;;;;10.05;69.96;100179.91;4978935;28;102797;-49
2022/01/03 13:29:57;;;;;;;15.05;11.85;;;;;;;10.05;69.86;100175.25;4987323;28;102168;-49
2022/01/03 13:32:27;;;;;;;16.45;12.52;;;;;;;10.06;69.83;100193.22;4983956;28;102310;-50
2022/01/03 13:34:56;;;;;;;15.82;12.15;;;;;;;10.06;69.37;100186.94;4994812;28;104225;-50
2022/01/03 13:37:24;;;;;;;15.95;12.45;;;;;;;10.06;69.85;100187.78;4988747;28;102307;-50
2022/01/03 13:39:55;;;;;;;17.60;13.32;;;;;;;10.07;69.72;100183.16;4989865;28;102215;-50
2022/01/03 13:50:13;;;;;;;17.73;13.20;;;;;;;10.06;70.27;100176.91;4981297;28;102293;-48
2022/01/03 13:52:41;;;;;;;20.38;13.73;;;;;;;10.07;69.80;100175.00;4986268;28;102200;-50
2022/01/03 13:55:17;;;;;;;17.83;13.20;;;;;;;10.07;69.61;100183.97;5001238;28;104002;-49
2022/01/03 13:57:45;;;;;;;17.35;13.65;;;;;;;10.06;69.45;100176.06;4999468;28;103909;-50
2022/01/03 14:00:17;;;;;;;17.52;13.48;;;;;;;10.08;69.60;100184.78;4999302;28;102022;-48
2022/01/03 14:02:44;;;;;;;18.15;13.75;;;;;;;10.08;69.65;100182.06;5004231;28;102274;-50
2022/01/03 14:05:13;;;;;;;18.70;13.88;;;;;;;10.06;69.67;100181.50;4977820;28;103985;-49
2022/01/03 14:07:55;;;;;;;19.63;13.88;;;;;;;10.07;70.15;100173.09;4992451;28;101819;-49
2022/01/03 14:10:35;;;;;;;17.83;14.45;;;;;;;10.06;69.78;100184.22;4984070;28;104371;-51
2022/01/03 14:13:04;;;;;;;16.33;13.82;;;;;;;10.06;70.22;100197.81;4999009;28;102370;-51
2022/01/03 14:15:30;;;;;;;18.88;15.07;;;;;;;10.06;69.67;100197.81;4984338;28;103899;-49
2022/01/03 14:17:57;;;;;;;16.98;13.35;;;;;;;10.06;70.19;100193.22;4985713;28;102196;-49
2022/01/03 14:20:25;;;;;;;18.00;13.77;;;;;;;10.07;69.80;100196.75;4997279;28;102020;-49
2022/01/03 14:22:57;;;;;;;19.88;15.13;;;;;;;10.06;69.58;100187.78;4982355;28;102053;-49
2022/01/03 14:25:25;;;;;;;18.88;15.32;;;;;;;10.07;70.15;100210.34;4987437;28;104207;-50
2022/01/03 14:28:02;;;;;;;18.45;15.00;;;;;;;10.06;69.34;100205.97;4991498;28;102827;-50
2022/01/03 14:30:33;;;;;;;18.67;14.50;;;;;;;10.07;69.66;100221.22;5000476;28;102021;-49
2022/01/03 14:33:03;;;;;;;18.55;14.60;;;;;;;10.07;69.43;100215.78;5002111;28;102732;-50
2022/01/03 14:35:35;;;;;;;21.25;15.68;;;;;;;10.07;69.68;100207.63;4994286;28;103937;-49
2022/01/03 14:38:06;;;;;;;18.67;15.18;;;;;;;10.07;69.94;100210.34;4978211;28;102246;-51
2022/01/03 14:40:39;;;;;;;18.35;14.93;;;;;;;10.08;69.90;100206.53;4990024;28;102237;-50
2022/01/03 14:43:06;;;;;;;20.27;15.85;;;;;;;10.06;69.99;100203.25;4992543;28;102142;-50